Time;durP1;ratioP1;P1;durP2;ratioP2;P2;SDS_P1;SDS_P2;PMS_P1;PMS_P2;Temp;Humidity;BMP_temperature;BMP_pressure;BME280_temperature;BME280_humidity;BME280_pressure;Samples;Min_cycle;Max_cycle;Signal;HPM_P1;HPM_P2
2023/12/12 00:01:55;;;;;;;89.88;84.13;;;14.60;99.90;;;;;;5034081;28;20033;-68
2023/12/12 00:04:22;;;;;;;94.22;88.72;;;14.60;99.90;;;;;;5034180;28;20033;-67
2023/12/12 00:06:48;;;;;;;87.88;82.65;;;14.60;99.90;;;;;;5033970;28;20045;-67
2023/12/12 00:09:14;;;;;;;78.10;73.47;;;14.60;99.90;;;;;;5034229;28;20017;-67
2023/12/12 00:11:40;;;;;;;92.80;87.30;;;14.50;99.90;;;;;;5033839;28;20033;-67
2023/12/12 00:14:06;;;;;;;86.93;81.43;;;14.50;99.90;;;;;;5034451;28;20048;-67
2023/12/12 00:16:32;;;;;;;100.72;94.65;;;14.50;99.90;;;;;;5026976;28;20406;-68
2023/12/12 00:18:58;;;;;;;101.15;95.13;;;14.50;99.90;;;;;;5014526;28;20034;-68
2023/12/12 00:21:24;;;;;;;102.38;96.28;;;14.50;99.90;;;;;;5023513;28;20478;-68
2023/12/12 00:23:50;;;;;;;106.43;100.00;;;14.50;99.90;;;;;;5032166;28;20043;-68
2023/12/12 00:26:16;;;;;;;113.63;106.97;;;14.50;99.90;;;;;;5029211;28;20050;-67
2023/12/12 00:28:42;;;;;;;118.57;110.78;;;14.50;99.90;;;;;;5017224;28;20044;-68
2023/12/12 00:31:08;;;;;;;128.25;120.70;;;14.40;99.90;;;;;;5024985;28;20041;-68
2023/12/12 00:33:35;;;;;;;143.75;135.90;;;14.50;99.90;;;;;;5033773;28;20056;-68
2023/12/12 00:36:01;;;;;;;143.60;135.00;;;14.50;99.90;;;;;;5032334;28;20029;-68
2023/12/12 00:38:30;;;;;;;140.77;133.13;;;14.50;99.90;;;;;;5033890;28;20476;-68
2023/12/12 00:40:56;;;;;;;132.65;125.00;;;14.50;99.90;;;;;;5033084;28;20041;-67
2023/12/12 00:43:22;;;;;;;145.15;136.90;;;14.50;99.90;;;;;;5033428;28;20025;-67
2023/12/12 00:45:48;;;;;;;136.20;128.40;;;14.60;99.90;;;;;;5032492;28;20402;-67
2023/12/12 00:48:14;;;;;;;144.18;135.85;;;14.50;99.90;;;;;;5020026;28;20034;-68
2023/12/12 00:50:40;;;;;;;140.30;131.80;;;14.60;99.90;;;;;;5029036;28;20038;-68
2023/12/12 00:53:07;;;;;;;146.10;137.88;;;14.50;99.90;;;;;;5014954;28;20040;-68
2023/12/12 00:55:33;;;;;;;152.40;144.02;;;14.50;99.90;;;;;;5017047;28;20037;-68
2023/12/12 00:57:59;;;;;;;152.70;143.93;;;14.60;99.90;;;;;;5032021;28;20037;-68
2023/12/12 01:00:25;;;;;;;155.00;146.25;;;14.60;99.90;;;;;;5015632;28;20052;-68
2023/12/12 01:02:51;;;;;;;136.88;129.07;;;14.60;99.90;;;;;;5033484;28;20034;-67
2023/12/12 01:05:17;;;;;;;137.95;130.57;;;14.60;99.90;;;;;;5021391;28;20057;-67
2023/12/12 01:07:43;;;;;;;151.27;143.05;;;14.60;99.90;;;;;;5025032;28;20506;-68
2023/12/12 01:10:09;;;;;;;134.93;127.88;;;14.60;99.90;;;;;;5031013;28;20030;-68
2023/12/12 01:12:36;;;;;;;139.90;132.25;;;14.60;99.90;;;;;;5033082;28;20406;-68
2023/12/12 01:15:02;;;;;;;122.28;115.75;;;14.60;99.90;;;;;;5032377;28;20036;-68
2023/12/12 01:17:29;;;;;;;122.25;115.47;;;14.60;99.90;;;;;;5019991;28;20037;-67
2023/12/12 01:19:55;;;;;;;133.23;125.72;;;14.60;99.90;;;;;;5032847;28;20026;-67
2023/12/12 01:22:21;;;;;;;138.32;130.68;;;14.70;99.90;;;;;;5032586;28;20040;-68
2023/12/12 01:24:47;;;;;;;149.93;141.48;;;14.70;99.90;;;;;;5032169;28;20045;-68
2023/12/12 01:27:13;;;;;;;145.55;137.48;;;14.60;99.90;;;;;;5026110;28;20047;-68
2023/12/12 01:29:40;;;;;;;164.75;155.80;;;14.60;99.90;;;;;;5024180;28;20029;-68
2023/12/12 01:32:06;;;;;;;172.27;162.75;;;14.70;99.90;;;;;;5031721;28;20041;-68
2023/12/12 01:34:32;;;;;;;177.57;167.60;;;14.60;99.90;;;;;;5017078;28;20038;-68
2023/12/12 01:36:58;;;;;;;147.82;139.35;;;14.70;99.90;;;;;;5027638;28;20037;-68
2023/12/12 01:39:24;;;;;;;153.07;144.80;;;14.70;99.90;;;;;;5032664;28;20481;-68
2023/12/12 01:41:50;;;;;;;161.95;152.48;;;14.70;99.90;;;;;;5031961;28;20048;-68
2023/12/12 01:44:16;;;;;;;186.23;175.38;;;14.70;99.90;;;;;;5031636;28;20021;-68
2023/12/12 01:46:43;;;;;;;162.82;153.68;;;14.70;99.90;;;;;;5024408;28;20502;-68
2023/12/12 01:49:09;;;;;;;173.60;164.02;;;14.70;99.90;;;;;;5017699;28;20505;-68
2023/12/12 01:51:36;;;;;;;150.25;142.00;;;14.80;99.90;;;;;;5023419;28;20041;-67
2023/12/12 01:54:02;;;;;;;140.43;132.95;;;14.70;99.90;;;;;;5016221;28;20466;-68
2023/12/12 01:56:29;;;;;;;166.10;157.00;;;14.70;99.90;;;;;;5030913;28;20036;-67
2023/12/12 01:58:56;;;;;;;179.60;170.15;;;14.70;99.90;;;;;;5023531;28;20049;-67
2023/12/12 02:01:22;;;;;;;138.32;130.63;;;14.70;99.90;;;;;;5020317;28;20044;-67
2023/12/12 02:03:49;;;;;;;155.48;146.82;;;14.70;99.90;;;;;;5031466;28;20045;-68
2023/12/12 02:06:15;;;;;;;164.38;155.48;;;14.70;99.90;;;;;;5031150;28;20612;-68
2023/12/12 02:08:42;;;;;;;168.10;158.90;;;14.70;99.90;;;;;;5013565;28;20034;-68
2023/12/12 02:11:08;;;;;;;157.60;149.30;;;14.70;99.90;;;;;;5018831;28;20387;-68
2023/12/12 02:13:34;;;;;;;168.75;159.57;;;14.70;99.90;;;;;;5013595;28;20034;-68
2023/12/12 02:16:00;;;;;;;192.32;181.55;;;14.70;99.90;;;;;;5027243;28;20034;-68
2023/12/12 02:18:26;;;;;;;179.35;169.45;;;14.70;99.90;;;;;;5016234;28;20030;-67
2023/12/12 02:20:52;;;;;;;170.13;161.10;;;14.70;99.90;;;;;;5018002;28;20044;-68
2023/12/12 02:23:18;;;;;;;172.55;163.18;;;14.70;99.90;;;;;;5031816;28;20041;-68
2023/12/12 02:25:45;;;;;;;164.20;155.07;;;14.70;99.90;;;;;;5013814;28;20029;-68
2023/12/12 02:28:11;;;;;;;161.23;152.82;;;14.80;99.90;;;;;;5012953;28;20041;-68
2023/12/12 02:30:37;;;;;;;162.52;154.05;;;14.70;99.90;;;;;;5021406;28;20041;-68
2023/12/12 02:33:04;;;;;;;165.00;156.25;;;14.70;99.90;;;;;;5030206;28;20406;-68
2023/12/12 02:35:31;;;;;;;150.38;142.55;;;14.70;99.90;;;;;;5028950;28;20072;-68
2023/12/12 02:37:57;;;;;;;144.65;137.18;;;14.70;99.90;;;;;;5024291;28;20478;-68
2023/12/12 02:40:23;;;;;;;133.00;126.28;;;14.70;99.90;;;;;;5015064;28;20065;-67
2023/12/12 02:42:51;;;;;;;143.57;136.18;;;14.70;99.90;;;;;;5031861;28;20033;-67
2023/12/12 02:45:17;;;;;;;130.32;123.65;;;14.70;99.90;;;;;;5029109;28;20045;-68
2023/12/12 02:47:43;;;;;;;141.70;134.50;;;14.60;99.90;;;;;;5029696;28;20044;-68
2023/12/12 02:50:09;;;;;;;188.63;178.32;;;14.60;99.90;;;;;;5031741;28;20041;-67
2023/12/12 02:52:35;;;;;;;201.30;190.23;;;14.70;99.90;;;;;;5021216;28;20037;-68
2023/12/12 02:55:01;;;;;;;147.63;139.98;;;14.60;99.90;;;;;;5025978;28;20038;-67
2023/12/12 02:57:27;;;;;;;146.27;138.88;;;14.70;99.90;;;;;;5035419;28;20056;-67
2023/12/12 02:59:53;;;;;;;174.63;165.35;;;14.60;99.90;;;;;;5026114;28;20034;-68
2023/12/12 03:02:19;;;;;;;193.20;183.00;;;14.60;99.90;;;;;;5032231;28;20040;-67
2023/12/12 03:04:46;;;;;;;157.63;149.43;;;14.60;99.90;;;;;;5033380;28;20033;-67
2023/12/12 03:07:12;;;;;;;134.45;127.68;;;14.70;99.90;;;;;;5033208;28;20052;-67
2023/12/12 03:09:38;;;;;;;140.10;132.95;;;14.70;99.90;;;;;;5035185;28;20040;-68
2023/12/12 03:12:04;;;;;;;226.75;213.93;;;14.70;99.90;;;;;;5034864;28;20037;-68
2023/12/12 03:14:31;;;;;;;195.45;184.50;;;14.70;99.90;;;;;;5033789;28;20026;-68
2023/12/12 03:16:57;;;;;;;143.60;135.85;;;14.60;99.90;;;;;;5030845;28;20037;-68
2023/12/12 03:19:24;;;;;;;186.45;175.68;;;14.70;99.90;;;;;;5033778;28;20033;-68
2023/12/12 03:21:50;;;;;;;171.88;162.68;;;14.60;99.90;;;;;;5025790;28;20046;-68
2023/12/12 03:24:19;;;;;;;241.95;227.10;;;14.60;99.90;;;;;;5034542;28;20401;-68
2023/12/12 03:26:45;;;;;;;163.10;153.90;;;14.50;99.90;;;;;;5029384;28;20073;-68
2023/12/12 03:29:11;;;;;;;160.30;151.63;;;14.50;99.90;;;;;;5021816;28;20446;-68
2023/12/12 03:31:39;;;;;;;139.75;132.23;;;14.50;99.90;;;;;;5029727;28;20045;-68
2023/12/12 03:34:05;;;;;;;146.55;138.40;;;14.50;99.90;;;;;;5034323;28;20061;-72
2023/12/12 03:36:31;;;;;;;159.68;151.00;;;14.50;99.90;;;;;;5033909;28;20470;-73
2023/12/12 03:38:57;;;;;;;133.30;126.13;;;14.50;99.90;;;;;;5014254;28;20030;-73
2023/12/12 03:41:24;;;;;;;149.23;140.90;;;14.50;99.90;;;;;;5024970;28;20474;-73
2023/12/12 03:43:50;;;;;;;136.95;129.52;;;14.50;99.90;;;;;;5034130;28;20025;-73
2023/12/12 03:46:18;;;;;;;160.38;151.70;;;14.50;99.90;;;;;;5023091;28;20042;-72
2023/12/12 03:48:44;;;;;;;161.85;153.13;;;14.50;99.90;;;;;;5015155;28;20474;-73
2023/12/12 03:51:11;;;;;;;125.80;119.32;;;14.50;99.90;;;;;;5026845;28;20030;-72
2023/12/12 03:53:38;;;;;;;121.10;114.65;;;14.40;99.90;;;;;;5019169;28;20038;-73
2023/12/12 03:56:07;;;;;;;112.93;106.75;;;14.40;99.90;;;;;;5023606;28;20032;-72
2023/12/12 03:58:33;;;;;;;115.13;108.82;;;14.40;99.90;;;;;;5016410;28;20041;-72
2023/12/12 04:01:00;;;;;;;133.05;125.78;;;14.40;99.90;;;;;;5017818;28;20040;-73
2023/12/12 04:03:26;;;;;;;154.48;145.70;;;14.40;99.90;;;;;;5020278;28;20025;-72
2023/12/12 04:05:52;;;;;;;123.80;116.60;;;14.30;99.90;;;;;;5025549;28;20497;-73
2023/12/12 04:08:18;;;;;;;114.65;108.57;;;14.30;99.90;;;;;;5015861;28;20045;-72
2023/12/12 04:10:44;;;;;;;131.38;123.63;;;14.30;99.90;;;;;;5018308;28;20026;-72
2023/12/12 04:13:10;;;;;;;98.07;92.72;;;14.30;99.90;;;;;;5032521;28;20038;-72
2023/12/12 04:15:36;;;;;;;92.32;87.18;;;14.20;99.90;;;;;;5017650;28;20486;-73
2023/12/12 04:18:02;;;;;;;101.78;96.18;;;14.30;99.90;;;;;;5033220;28;20049;-73
2023/12/12 04:20:29;;;;;;;73.35;69.20;;;14.20;99.90;;;;;;5032656;28;20029;-73
2023/12/12 04:22:55;;;;;;;93.68;88.57;;;14.20;99.90;;;;;;5028711;28;20410;-72
2023/12/12 04:25:22;;;;;;;101.05;95.57;;;14.20;99.90;;;;;;5018514;28;20025;-72
2023/12/12 04:27:49;;;;;;;129.90;122.88;;;14.20;99.90;;;;;;5030580;28;20479;-72
2023/12/12 04:30:15;;;;;;;109.70;103.40;;;14.20;99.90;;;;;;5032354;28;20053;-72
2023/12/12 04:32:41;;;;;;;88.20;83.35;;;14.10;99.90;;;;;;5032120;28;20041;-72
2023/12/12 04:35:09;;;;;;;78.30;73.82;;;14.10;99.90;;;;;;5014422;28;20037;-72
2023/12/12 04:37:35;;;;;;;89.72;84.57;;;14.20;99.90;;;;;;5033440;28;20021;-73
2023/12/12 04:40:01;;;;;;;76.97;72.43;;;14.30;99.90;;;;;;5033490;28;20033;-72
2023/12/12 04:42:27;;;;;;;81.50;76.75;;;14.20;99.90;;;;;;5033141;28;20375;-73
2023/12/12 04:44:53;;;;;;;76.03;71.57;;;14.20;99.90;;;;;;5032298;28;20037;-72
2023/12/12 04:47:19;;;;;;;81.55;76.82;;;14.30;99.90;;;;;;5032803;28;20092;-73
2023/12/12 04:49:45;;;;;;;84.95;80.18;;;14.20;99.90;;;;;;5023916;28;20040;-72
2023/12/12 04:52:11;;;;;;;89.57;84.90;;;14.30;99.90;;;;;;5027470;28;20038;-72
2023/12/12 04:54:37;;;;;;;98.53;92.82;;;14.30;99.90;;;;;;5032806;28;20036;-72
2023/12/12 04:57:04;;;;;;;95.40;90.13;;;14.30;99.90;;;;;;5033033;28;20041;-72
2023/12/12 04:59:30;;;;;;;106.65;100.53;;;14.20;99.90;;;;;;5033597;28;20033;-72
2023/12/12 05:01:56;;;;;;;120.57;113.93;;;14.20;99.90;;;;;;5031054;28;20052;-72
2023/12/12 05:04:22;;;;;;;155.25;146.38;;;14.20;99.90;;;;;;5033490;28;20041;-72
2023/12/12 05:06:48;;;;;;;149.40;141.07;;;14.20;99.90;;;;;;5027709;28;20053;-72
2023/12/12 05:09:14;;;;;;;136.18;128.52;;;14.30;99.90;;;;;;5034004;28;20034;-72
2023/12/12 05:11:40;;;;;;;142.75;134.60;;;14.30;99.90;;;;;;5029974;28;20044;-72
2023/12/12 05:14:07;;;;;;;143.40;135.38;;;14.30;99.90;;;;;;5013547;28;20044;-73
2023/12/12 05:16:33;;;;;;;162.20;153.50;;;14.20;99.90;;;;;;5024433;28;20056;-73
2023/12/12 05:18:59;;;;;;;168.70;158.82;;;14.10;99.90;;;;;;5033370;28;20025;-72
2023/12/12 05:21:26;;;;;;;171.70;161.93;;;14.10;99.90;;;;;;5013500;28;20046;-72
2023/12/12 05:23:52;;;;;;;196.27;185.50;;;14.10;99.90;;;;;;5014589;28;20022;-72
2023/12/12 05:26:18;;;;;;;155.63;146.95;;;14.10;99.90;;;;;;5027164;28;20060;-73
2023/12/12 05:28:45;;;;;;;199.00;187.85;;;14.20;99.90;;;;;;5018100;28;20048;-73
2023/12/12 05:31:11;;;;;;;179.85;169.90;;;14.10;99.90;;;;;;5026387;28;20045;-74
2023/12/12 05:33:38;;;;;;;158.38;149.25;;;14.20;99.90;;;;;;5030925;28;20052;-73
2023/12/12 05:36:04;;;;;;;163.38;154.32;;;14.20;99.90;;;;;;5030463;28;20359;-73
2023/12/12 05:38:30;;;;;;;136.27;128.70;;;14.10;99.90;;;;;;5027806;28;20033;-73
2023/12/12 05:40:56;;;;;;;123.55;116.38;;;14.10;99.90;;;;;;5027234;28;20038;-74
2023/12/12 05:43:23;;;;;;;128.90;121.40;;;14.20;99.90;;;;;;5020126;28;20033;-70
2023/12/12 05:45:49;;;;;;;152.23;143.30;;;14.20;99.90;;;;;;5017901;28;20045;-73
2023/12/12 05:48:15;;;;;;;147.70;139.68;;;14.20;99.90;;;;;;5031374;28;20045;-73
2023/12/12 05:50:41;;;;;;;129.20;121.57;;;14.10;99.90;;;;;;5032483;28;20036;-74
2023/12/12 05:53:07;;;;;;;121.80;114.53;;;14.10;99.90;;;;;;5032513;28;20037;-74
2023/12/12 05:55:33;;;;;;;134.80;127.03;;;14.10;99.90;;;;;;5025864;28;20022;-73
2023/12/12 05:58:00;;;;;;;135.18;127.28;;;14.10;99.90;;;;;;5012473;28;20033;-73
2023/12/12 06:00:29;;;;;;;170.95;161.55;;;14.00;99.90;;;;;;5014170;28;20033;-73
2023/12/12 06:02:55;;;;;;;128.10;120.47;;;14.00;99.90;;;;;;5015394;28;20616;-73
2023/12/12 06:05:21;;;;;;;93.88;88.25;;;14.10;99.90;;;;;;5030778;28;20053;-73
2023/12/12 06:07:47;;;;;;;94.75;89.47;;;14.10;99.90;;;;;;5012897;28;20053;-73
2023/12/12 06:10:13;;;;;;;118.43;111.60;;;14.10;99.90;;;;;;5011213;28;20026;-73
2023/12/12 06:12:39;;;;;;;115.05;108.63;;;14.10;99.90;;;;;;5012959;28;20045;-73
2023/12/12 06:15:09;;;;;;;112.15;105.90;;;14.00;99.90;;;;;;5012343;28;20025;-74
2023/12/12 06:17:35;;;;;;;127.22;120.03;;;14.00;99.90;;;;;;5012001;28;20049;-74
2023/12/12 06:20:02;;;;;;;127.57;120.50;;;14.00;99.90;;;;;;5011570;28;20386;-74
2023/12/12 06:22:28;;;;;;;134.10;126.70;;;13.90;99.90;;;;;;5012704;28;20069;-73
2023/12/12 06:24:54;;;;;;;123.85;116.70;;;13.90;99.90;;;;;;5012038;28;20045;-73
2023/12/12 06:27:21;;;;;;;121.50;114.72;;;13.90;99.90;;;;;;5029836;28;20433;-73
2023/12/12 06:29:49;;;;;;;114.07;107.53;;;13.90;99.90;;;;;;5023307;28;20041;-73
2023/12/12 06:32:16;;;;;;;113.25;106.13;;;13.80;99.90;;;;;;5026798;28;20052;-73
2023/12/12 06:34:46;;;;;;;124.95;118.20;;;13.80;99.90;;;;;;5017500;28;20049;-73
2023/12/12 06:37:12;;;;;;;117.22;110.07;;;13.90;99.90;;;;;;5027737;28;20045;-73
2023/12/12 06:39:38;;;;;;;110.25;103.85;;;13.80;99.90;;;;;;5012269;28;20037;-73
2023/12/12 06:42:04;;;;;;;109.72;102.88;;;13.80;99.90;;;;;;5028811;28;20025;-73
2023/12/12 06:44:31;;;;;;;107.25;100.72;;;13.80;99.90;;;;;;5026316;28;20037;-74
2023/12/12 06:46:57;;;;;;;113.28;106.30;;;13.70;99.90;;;;;;5012866;28;20045;-73
2023/12/12 06:49:23;;;;;;;105.22;98.38;;;13.70;99.90;;;;;;5025944;28;20052;-73
2023/12/12 06:51:49;;;;;;;106.20;96.35;;;13.70;99.90;;;;;;5030320;28;20045;-74
2023/12/12 06:54:16;;;;;;;108.93;102.05;;;13.70;99.90;;;;;;5012066;28;20422;-74
2023/12/12 06:56:42;;;;;;;110.85;104.18;;;13.70;99.90;;;;;;5012838;28;20455;-73
2023/12/12 06:59:08;;;;;;;112.32;105.43;;;13.70;99.90;;;;;;5011249;28;20045;-73
2023/12/12 07:01:34;;;;;;;115.82;109.00;;;13.70;99.90;;;;;;5021640;28;20042;-74
2023/12/12 07:04:00;;;;;;;112.35;105.60;;;13.70;99.90;;;;;;5031958;28;20022;-73
2023/12/12 07:06:27;;;;;;;119.93;112.53;;;13.60;99.90;;;;;;5029452;28;20040;-73
2023/12/12 07:08:53;;;;;;;110.18;103.70;;;13.60;99.90;;;;;;5031627;28;20041;-73
2023/12/12 07:11:19;;;;;;;149.75;140.82;;;13.60;99.90;;;;;;5020635;28;20403;-73
2023/12/12 07:13:45;;;;;;;139.45;130.68;;;13.60;99.90;;;;;;5012393;28;20034;-73
2023/12/12 07:16:11;;;;;;;168.50;157.95;;;13.60;99.90;;;;;;5018110;28;20040;-73
2023/12/12 07:18:38;;;;;;;141.70;132.52;;;13.60;99.90;;;;;;5031935;28;20488;-73
2023/12/12 07:21:07;;;;;;;145.02;135.77;;;13.60;99.90;;;;;;5031772;28;20394;-73
2023/12/12 07:23:34;;;;;;;134.82;126.43;;;13.50;99.90;;;;;;5031352;28;20033;-73
2023/12/12 07:26:00;;;;;;;140.07;131.63;;;13.60;99.90;;;;;;5030605;28;20044;-73
2023/12/12 07:28:27;;;;;;;163.80;154.00;;;13.60;99.90;;;;;;5030097;28;20057;-73
2023/12/12 07:30:53;;;;;;;145.48;135.35;;;13.60;99.90;;;;;;5030712;28;20037;-73
2023/12/12 07:33:19;;;;;;;126.97;118.30;;;13.60;99.90;;;;;;5022483;28;20037;-73
2023/12/12 07:35:46;;;;;;;155.88;146.18;;;13.60;99.90;;;;;;5029074;28;20498;-73
2023/12/12 07:38:12;;;;;;;122.63;114.40;;;13.60;99.90;;;;;;5030725;28;20037;-74
2023/12/12 07:40:38;;;;;;;124.43;116.50;;;13.60;99.90;;;;;;5031697;28;20036;-74
2023/12/12 07:43:04;;;;;;;120.43;112.68;;;13.60;99.90;;;;;;5034161;28;20387;-73
2023/12/12 07:45:30;;;;;;;147.43;138.20;;;13.60;99.90;;;;;;5034146;28;20029;-74
2023/12/12 07:47:56;;;;;;;144.15;134.00;;;13.60;99.90;;;;;;5033048;28;20037;-75
2023/12/12 07:50:22;;;;;;;151.07;141.48;;;13.70;99.90;;;;;;5021245;28;20021;-74
2023/12/12 07:52:48;;;;;;;158.10;148.40;;;13.60;99.90;;;;;;5032403;28;20064;-73
2023/12/12 07:55:15;;;;;;;156.07;146.52;;;13.60;99.90;;;;;;5033532;28;20022;-74
2023/12/12 07:57:41;;;;;;;159.10;149.07;;;13.60;99.90;;;;;;5023329;28;20034;-73
2023/12/12 08:00:10;;;;;;;146.80;137.77;;;13.60;99.90;;;;;;5023001;28;20030;-73
2023/12/12 08:02:36;;;;;;;141.73;132.68;;;13.50;99.90;;;;;;5015992;28;20045;-74
2023/12/12 08:05:03;;;;;;;135.13;126.75;;;13.60;99.90;;;;;;5033216;28;20037;-74
2023/12/12 08:07:30;;;;;;;136.70;128.15;;;13.60;99.90;;;;;;5030026;28;20037;-73
2023/12/12 08:09:56;;;;;;;143.23;133.30;;;13.50;99.90;;;;;;5033355;28;20432;-73
2023/12/12 08:12:23;;;;;;;147.55;137.57;;;13.60;99.90;;;;;;5032749;28;20041;-73
2023/12/12 08:14:52;;;;;;;132.35;123.75;;;13.60;99.90;;;;;;5021931;28;20034;-74
2023/12/12 08:17:18;;;;;;;143.50;134.07;;;13.60;99.90;;;;;;5020008;28;20038;-73
2023/12/12 08:19:44;;;;;;;140.18;130.75;;;13.50;99.90;;;;;;5034469;28;20040;-74
2023/12/12 08:22:12;;;;;;;144.90;134.95;;;13.60;99.90;;;;;;5018396;28;20026;-74
2023/12/12 08:24:38;;;;;;;137.15;128.15;;;13.50;99.90;;;;;;5023441;28;20046;-74
2023/12/12 08:27:04;;;;;;;152.23;141.50;;;13.50;99.90;;;;;;5031803;28;20048;-73
2023/12/12 08:29:30;;;;;;;153.57;143.15;;;13.60;99.90;;;;;;5034114;28;20041;-73
2023/12/12 08:31:56;;;;;;;142.00;132.07;;;13.60;99.90;;;;;;5033488;28;20040;-73
2023/12/12 08:34:23;;;;;;;151.73;140.77;;;13.60;99.90;;;;;;5033004;28;20045;-73
2023/12/12 08:36:50;;;;;;;138.38;129.05;;;13.60;99.90;;;;;;5028762;28;20034;-73
2023/12/12 08:39:16;;;;;;;131.80;122.45;;;13.70;99.90;;;;;;5025519;28;20022;-73
2023/12/12 08:41:42;;;;;;;126.38;117.65;;;13.60;99.90;;;;;;5026337;28;20478;-73
2023/12/12 08:44:08;;;;;;;99.68;91.78;;;13.70;99.90;;;;;;5016992;28;20026;-73
2023/12/12 08:46:34;;;;;;;79.32;72.47;;;13.70;99.90;;;;;;5024542;28;20605;-73
2023/12/12 08:49:00;;;;;;;81.85;75.03;;;13.70;99.90;;;;;;5033004;28;20088;-72
2023/12/12 08:51:26;;;;;;;78.57;71.90;;;13.70;99.90;;;;;;5033620;28;20033;-74
2023/12/12 08:53:53;;;;;;;81.78;75.60;;;13.70;99.90;;;;;;5033557;28;20041;-73
2023/12/12 08:56:19;;;;;;;78.72;72.00;;;13.80;99.90;;;;;;5033164;28;20040;-73
2023/12/12 08:58:47;;;;;;;87.03;79.72;;;13.70;99.90;;;;;;5034021;28;20033;-74
2023/12/12 09:01:14;;;;;;;97.78;90.13;;;13.80;99.90;;;;;;5032867;28;20049;-73
2023/12/12 09:03:40;;;;;;;103.20;95.07;;;13.80;99.90;;;;;;5032059;28;20498;-74
2023/12/12 09:06:06;;;;;;;96.65;88.78;;;13.80;99.90;;;;;;5026933;28;20342;-73
2023/12/12 09:08:32;;;;;;;124.97;116.70;;;13.80;99.90;;;;;;5030050;28;20041;-73
2023/12/12 09:10:59;;;;;;;119.53;110.72;;;13.80;99.90;;;;;;5032869;28;20401;-73
2023/12/12 09:13:26;;;;;;;152.77;142.27;;;13.80;99.90;;;;;;5015162;28;20049;-73
2023/12/12 09:15:52;;;;;;;156.45;145.57;;;13.80;99.90;;;;;;5032587;28;20037;-73
2023/12/12 09:18:18;;;;;;;163.10;151.60;;;13.80;99.90;;;;;;5033163;28;20033;-75
2023/12/12 09:20:44;;;;;;;138.93;129.07;;;13.90;99.90;;;;;;5033034;28;20045;-73
2023/12/12 09:23:10;;;;;;;131.85;122.28;;;13.90;99.90;;;;;;5032063;28;20037;-73
2023/12/12 09:25:36;;;;;;;125.88;117.05;;;13.90;99.90;;;;;;5027918;28;20044;-73
2023/12/12 09:28:02;;;;;;;125.53;116.22;;;13.90;99.90;;;;;;5031244;28;20189;-72
2023/12/12 09:30:28;;;;;;;108.00;99.55;;;13.90;99.90;;;;;;5032233;28;20037;-73
2023/12/12 09:32:54;;;;;;;128.65;119.68;;;14.00;99.90;;;;;;5031065;28;20052;-73
2023/12/12 09:35:21;;;;;;;138.95;129.38;;;14.00;99.90;;;;;;5028406;28;20037;-72
2023/12/12 09:37:47;;;;;;;136.40;127.50;;;14.00;99.90;;;;;;5032217;28;20037;-73
2023/12/12 09:40:13;;;;;;;145.57;135.95;;;14.00;99.90;;;;;;5032393;28;20036;-73
2023/12/12 09:42:40;;;;;;;134.20;124.40;;;14.00;99.90;;;;;;5032948;28;20029;-73
2023/12/12 09:45:16;;;;;;;129.90;121.00;;;14.00;99.90;;;;;;5027696;28;20029;-73
2023/12/12 09:47:42;;;;;;;137.35;128.32;;;14.10;99.90;;;;;;5013013;28;20113;-73
2023/12/12 09:50:10;;;;;;;150.32;140.40;;;14.10;99.90;;;;;;5035586;28;20049;-72
2023/12/12 09:52:36;;;;;;;150.05;140.82;;;14.10;99.90;;;;;;5030710;28;20046;-73
2023/12/12 09:55:03;;;;;;;147.75;138.18;;;14.10;99.90;;;;;;5032766;28;20072;-73
2023/12/12 09:57:30;;;;;;;135.63;126.63;;;14.20;99.90;;;;;;5031802;28;20041;-73
2023/12/12 09:59:59;;;;;;;123.50;115.05;;;14.20;99.90;;;;;;5030651;28;20470;-73
2023/12/12 10:02:33;;;;;;;124.72;116.43;;;14.20;99.90;;;;;;5030067;28;20048;-73
2023/12/12 10:04:59;;;;;;;154.00;144.18;;;14.10;99.90;;;;;;5013847;28;20517;-73
2023/12/12 10:07:26;;;;;;;155.98;145.98;;;14.20;99.90;;;;;;5029156;28;20482;-73
2023/12/12 10:09:52;;;;;;;164.63;154.35;;;14.20;99.90;;;;;;5022233;28;20056;-73
2023/12/12 10:12:18;;;;;;;135.55;125.95;;;14.20;99.90;;;;;;5023844;28;20022;-73
2023/12/12 10:14:47;;;;;;;153.30;143.60;;;14.20;99.90;;;;;;5031081;28;20036;-73
2023/12/12 10:17:13;;;;;;;138.27;129.07;;;14.20;99.90;;;;;;5029603;28;20033;-73
2023/12/12 10:19:40;;;;;;;128.10;120.13;;;14.10;99.90;;;;;;5030919;28;20029;-73
2023/12/12 10:22:07;;;;;;;123.82;115.70;;;14.20;99.90;;;;;;5030248;28;20086;-73
2023/12/12 10:24:33;;;;;;;130.68;121.85;;;14.20;99.90;;;;;;5022330;28;20025;-73
2023/12/12 10:26:59;;;;;;;143.00;133.40;;;14.20;99.90;;;;;;5010329;28;20042;-73
2023/12/12 10:29:25;;;;;;;113.90;105.68;;;14.20;99.90;;;;;;5017634;28;20394;-73
2023/12/12 10:31:52;;;;;;;144.15;134.52;;;14.10;99.90;;;;;;5018629;28;20030;-73
2023/12/12 10:34:19;;;;;;;125.43;116.50;;;14.20;99.90;;;;;;5030403;28;20501;-73
2023/12/12 10:36:48;;;;;;;125.25;116.53;;;14.20;99.90;;;;;;5031086;28;20036;-73
2023/12/12 10:39:15;;;;;;;124.78;116.18;;;14.20;99.90;;;;;;5026015;28;20026;-73
2023/12/12 10:41:51;;;;;;;129.68;120.47;;;14.30;99.90;;;;;;5029162;28;20037;-73
2023/12/12 10:44:21;;;;;;;171.80;160.85;;;14.30;99.90;;;;;;5017539;28;20034;-73
2023/12/12 10:46:52;;;;;;;277.42;260.92;;;14.30;99.90;;;;;;5016736;28;20034;-73
2023/12/12 10:49:20;;;;;;;;;;;14.40;99.90;;;;;;5016413;28;20389;-73
2023/12/12 10:51:46;;;;;;;116.57;109.18;;;14.50;99.90;;;;;;5029882;28;19909;-73
2023/12/12 10:54:12;;;;;;;166.32;155.52;;;14.50;99.90;;;;;;5026409;28;20030;-73
2023/12/12 10:56:38;;;;;;;147.73;138.35;;;14.50;99.90;;;;;;5009576;28;20029;-73
2023/12/12 10:59:04;;;;;;;163.50;152.88;;;14.50;99.90;;;;;;4994353;28;20470;-73
2023/12/12 11:01:31;;;;;;;147.57;137.88;;;14.50;99.90;;;;;;5027856;28;20039;-73
2023/12/12 11:03:58;;;;;;;185.77;174.35;;;14.50;99.90;;;;;;5029117;28;20045;-73
2023/12/12 11:06:24;;;;;;;182.25;171.05;;;14.50;99.90;;;;;;5031405;28;20505;-73
2023/12/12 11:08:52;;;;;;;178.95;167.85;;;14.50;99.90;;;;;;5030189;28;20041;-73
2023/12/12 11:11:19;;;;;;;167.43;156.93;;;14.60;99.90;;;;;;5020778;28;20041;-73
2023/12/12 11:13:45;;;;;;;150.02;140.60;;;14.60;99.90;;;;;;4994399;28;20046;-73
2023/12/12 11:16:11;;;;;;;200.52;188.70;;;14.60;99.90;;;;;;5002585;28;20037;-73
2023/12/12 11:18:37;;;;;;;218.57;205.48;;;14.70;99.90;;;;;;5034048;28;20390;-73
2023/12/12 11:21:04;;;;;;;171.82;161.43;;;14.60;99.90;;;;;;5033027;28;20466;-73
2023/12/12 11:23:46;;;;;;;189.40;177.52;;;14.60;99.90;;;;;;5035218;28;20034;-72
2023/12/12 11:26:15;;;;;;;171.13;160.50;;;14.60;99.90;;;;;;5034774;28;20018;-73
2023/12/12 11:28:42;;;;;;;194.77;182.88;;;14.70;99.90;;;;;;5032825;28;20056;-73
2023/12/12 11:31:08;;;;;;;224.60;211.23;;;14.70;99.90;;;;;;5023793;28;20030;-73
2023/12/12 11:34:00;;;;;;;204.52;192.10;;;14.70;99.90;;;;;;5027450;28;20041;-73
2023/12/12 11:36:26;;;;;;;222.05;209.07;;;14.70;99.90;;;;;;5034865;28;20026;-73
2023/12/12 11:39:02;;;;;;;206.73;194.50;;;14.70;99.90;;;;;;5016890;28;20040;-73
2023/12/12 11:41:28;;;;;;;192.57;181.23;;;14.70;99.90;;;;;;5031909;28;20021;-73
2023/12/12 11:43:55;;;;;;;217.20;204.55;;;14.80;99.90;;;;;;5034310;28;20025;-73
2023/12/12 11:46:21;;;;;;;226.88;213.88;;;14.80;99.90;;;;;;5033655;28;20052;-73
2023/12/12 11:48:47;;;;;;;217.02;204.75;;;14.90;99.90;;;;;;5034125;28;20406;-73
2023/12/12 11:51:42;;;;;;;194.82;183.25;;;14.90;99.90;;;;;;5034461;28;20029;-73
2023/12/12 11:54:08;;;;;;;211.40;198.80;;;14.90;99.90;;;;;;5033302;28;20040;-73
2023/12/12 11:56:34;;;;;;;261.17;245.65;;;14.90;99.90;;;;;;5024240;28;20060;-73
2023/12/12 11:59:03;;;;;;;182.68;171.73;;;14.80;99.90;;;;;;5034086;28;20029;-72
2023/12/12 12:01:30;;;;;;;179.18;168.23;;;14.80;99.90;;;;;;5015289;28;20041;-73
2023/12/12 12:03:56;;;;;;;224.57;211.35;;;14.70;99.90;;;;;;5034364;28;20045;-72
2023/12/12 12:06:22;;;;;;;271.33;255.57;;;14.70;99.90;;;;;;5024324;28;20029;-73
2023/12/12 12:08:50;;;;;;;201.00;189.18;;;14.70;99.90;;;;;;5014430;28;20071;-73